createdAt,value
2018-07-12T00:02:05.561Z,22.47
2018-07-12T00:04:33.856Z,29.27
2018-07-12T00:07:01.988Z,26.23
2018-07-12T00:09:30.182Z,25.03
2018-07-12T00:11:58.359Z,25.87
2018-07-12T00:14:26.572Z,31.20
2018-07-12T00:16:54.868Z,27.60
2018-07-12T00:21:58.076Z,35.57
2018-07-12T00:24:26.264Z,32.80
2018-07-12T00:26:54.362Z,30.53
2018-07-12T00:29:22.595Z,32.70
2018-07-12T00:31:50.951Z,27.60
2018-07-12T00:34:19.214Z,30.50
2018-07-12T00:36:47.383Z,28.97
2018-07-12T00:39:15.495Z,28.50
2018-07-12T00:41:43.612Z,28.13
2018-07-12T00:44:11.726Z,29.57
2018-07-12T00:46:40.024Z,28.10
2018-07-12T00:49:08.148Z,26.83
2018-07-12T00:51:36.329Z,27.57
2018-07-12T00:54:04.476Z,27.20
2018-07-12T00:56:32.648Z,23.93
2018-07-12T00:59:00.762Z,23.70
2018-07-12T01:01:29.102Z,35.30
2018-07-12T01:03:57.377Z,28.03
2018-07-12T01:06:25.867Z,27.30
2018-07-12T01:08:54.208Z,30.60
2018-07-12T01:11:22.339Z,32.83
2018-07-12T01:13:50.691Z,26.27
2018-07-12T01:16:18.815Z,26.30
2018-07-12T01:18:46.967Z,28.93
2018-07-12T01:21:15.238Z,32.27
2018-07-12T01:23:44.388Z,29.17
2018-07-12T01:26:12.523Z,27.43
2018-07-12T01:28:40.636Z,33.67
2018-07-12T01:31:08.764Z,29.80
2018-07-12T01:33:37.091Z,31.83
2018-07-12T01:36:05.615Z,30.90
2018-07-12T01:38:33.691Z,29.17
2018-07-12T01:41:01.891Z,30.70
2018-07-12T01:43:30.291Z,27.60
2018-07-12T01:45:58.558Z,29.23
2018-07-12T01:48:26.759Z,31.67
2018-07-12T01:50:54.952Z,31.77
2018-07-12T01:53:23.299Z,30.07
2018-07-12T01:55:51.744Z,37.23
2018-07-12T01:58:19.951Z,30.57
2018-07-12T02:00:48.296Z,34.77
2018-07-12T02:03:16.879Z,35.53
2018-07-12T02:05:45.143Z,37.53
2018-07-12T02:08:13.231Z,32.07
2018-07-12T02:10:41.367Z,32.30
2018-07-12T02:13:09.751Z,35.30
2018-07-12T02:15:37.948Z,31.90
2018-07-12T02:18:06.176Z,34.70
2018-07-12T02:20:34.383Z,37.17
2018-07-12T02:23:02.487Z,39.00
2018-07-12T02:25:30.640Z,34.77
2018-07-12T02:27:59.038Z,39.90
2018-07-12T02:30:27.100Z,35.57
2018-07-12T02:32:55.228Z,38.80
2018-07-12T02:35:23.527Z,34.20
2018-07-12T02:37:51.661Z,34.20
2018-07-12T02:40:19.798Z,34.53
2018-07-12T02:42:48.064Z,34.90
2018-07-12T02:45:16.284Z,28.47
2018-07-12T02:47:44.443Z,32.70
2018-07-12T02:50:12.646Z,38.30
2018-07-12T02:52:40.811Z,35.37
2018-07-12T02:55:08.925Z,32.53
2018-07-12T02:57:37.075Z,39.63
2018-07-12T03:00:05.258Z,45.90
2018-07-12T03:02:33.524Z,36.03
2018-07-12T03:05:01.671Z,41.53
2018-07-12T03:07:29.812Z,36.77
2018-07-12T03:09:57.987Z,44.03
2018-07-12T03:12:26.171Z,47.93
2018-07-12T03:14:54.364Z,37.30
2018-07-12T03:17:22.599Z,45.50
2018-07-12T03:19:50.706Z,46.40
2018-07-12T03:22:18.989Z,36.80
2018-07-12T03:24:47.182Z,45.30
2018-07-12T03:27:15.477Z,47.13
2018-07-12T03:29:43.697Z,48.07
2018-07-12T03:32:11.953Z,45.07
2018-07-12T03:34:40.302Z,45.80
2018-07-12T03:37:08.446Z,41.50
2018-07-12T03:39:36.578Z,45.93
2018-07-12T03:42:04.707Z,45.87
2018-07-12T03:44:33.001Z,43.37
2018-07-12T03:47:01.269Z,41.47
2018-07-12T03:49:29.513Z,43.20
2018-07-12T03:51:57.620Z,40.90
2018-07-12T03:54:25.788Z,41.03
2018-07-12T03:56:53.892Z,43.57
2018-07-12T03:59:22.030Z,51.27
2018-07-12T04:01:50.282Z,47.63
2018-07-12T04:04:18.471Z,40.80
2018-07-12T04:06:46.575Z,44.20
2018-07-12T04:09:14.747Z,51.63
2018-07-12T04:11:43.156Z,52.70
2018-07-12T04:14:11.314Z,54.37
2018-07-12T04:16:39.680Z,51.90
2018-07-12T04:19:08.044Z,47.83
2018-07-12T04:21:36.188Z,50.00
2018-07-12T04:24:04.335Z,47.40
2018-07-12T04:26:32.468Z,46.27
2018-07-12T04:29:00.712Z,47.90
2018-07-12T04:31:28.958Z,57.17
2018-07-12T04:33:57.470Z,50.00
2018-07-12T04:36:25.696Z,51.23
2018-07-12T04:38:53.884Z,49.80
2018-07-12T04:41:21.984Z,53.23
2018-07-12T04:43:50.162Z,57.37
2018-07-12T04:46:18.324Z,48.03
2018-07-12T04:48:46.676Z,52.53
2018-07-12T04:51:15.122Z,51.17
2018-07-12T04:53:43.422Z,47.40
2018-07-12T04:56:11.617Z,49.27
2018-07-12T04:58:39.788Z,49.57
2018-07-12T05:01:07.981Z,43.27
2018-07-12T05:03:36.326Z,45.43
2018-07-12T05:06:04.682Z,48.97
2018-07-12T05:08:32.936Z,58.20
2018-07-12T05:11:01.065Z,63.43
2018-07-12T05:13:29.215Z,60.50
2018-07-12T05:15:57.298Z,65.57
2018-07-12T05:18:25.495Z,63.63
2018-07-12T05:20:53.686Z,63.20
2018-07-12T05:23:21.973Z,58.10
2018-07-12T05:25:50.092Z,54.23
2018-07-12T05:28:18.307Z,51.70
2018-07-12T05:30:46.498Z,63.17
2018-07-12T05:33:14.843Z,59.37
2018-07-12T05:35:44.375Z,55.33
2018-07-12T05:38:14.035Z,52.00
2018-07-12T05:40:43.328Z,50.33
2018-07-12T05:43:12.675Z,54.83
2018-07-12T05:45:42.031Z,53.93
2018-07-12T05:48:11.477Z,58.73
2018-07-12T05:50:47.992Z,60.23
2018-07-12T05:53:18.585Z,64.23
2018-07-12T05:55:47.928Z,52.17
2018-07-12T05:58:17.260Z,58.10
2018-07-12T06:00:46.594Z,54.27
2018-07-12T06:03:15.923Z,54.27
2018-07-12T06:05:45.221Z,51.47
2018-07-12T06:08:14.528Z,50.70
2018-07-12T06:10:43.850Z,52.50
2018-07-12T06:13:13.260Z,55.43
2018-07-12T06:15:42.575Z,57.13
2018-07-12T06:18:11.819Z,54.23
2018-07-12T06:20:41.187Z,57.63
2018-07-12T06:23:10.543Z,62.23
2018-07-12T06:25:39.903Z,69.53
2018-07-12T06:28:09.254Z,71.30
2018-07-12T06:30:38.865Z,76.17
2018-07-12T06:33:08.303Z,83.60
2018-07-12T06:35:37.895Z,89.10
2018-07-12T06:38:07.376Z,85.97
2018-07-12T06:40:37.160Z,88.73
2018-07-12T06:43:06.888Z,101.17
2018-07-12T06:45:36.671Z,98.40
2018-07-12T06:48:06.209Z,102.57
2018-07-12T06:50:35.722Z,110.13
2018-07-12T06:53:05.427Z,113.20
2018-07-12T06:55:34.941Z,115.27
2018-07-12T06:58:04.345Z,137.97
2018-07-12T07:00:33.813Z,131.37
2018-07-12T07:03:03.462Z,152.90
2018-07-12T07:05:32.875Z,151.17
2018-07-12T07:08:02.237Z,151.13
2018-07-12T07:10:31.847Z,124.60
2018-07-12T07:13:01.312Z,112.80
2018-07-12T07:15:30.902Z,113.33
2018-07-12T07:18:00.312Z,91.17
2018-07-12T07:20:29.844Z,82.47
2018-07-12T07:22:59.282Z,72.83
2018-07-12T07:25:28.637Z,68.27
2018-07-12T07:27:58.032Z,67.17
2018-07-12T07:30:27.495Z,69.97
2018-07-12T07:32:56.985Z,65.10
2018-07-12T07:35:26.396Z,61.40
2018-07-12T07:37:55.898Z,60.70
2018-07-12T07:40:25.404Z,52.53
2018-07-12T07:42:54.969Z,50.07
2018-07-12T07:45:24.484Z,54.87
2018-07-12T07:47:54.102Z,46.23
2018-07-12T07:50:23.583Z,47.00
2018-07-12T07:52:53.042Z,48.40
2018-07-12T07:55:22.439Z,49.50
2018-07-12T07:57:51.936Z,48.63
2018-07-12T08:00:21.334Z,45.87
2018-07-12T08:02:51.019Z,45.07
2018-07-12T08:05:20.382Z,44.50
2018-07-12T08:07:49.668Z,43.90
2018-07-12T08:10:18.990Z,37.00
2018-07-12T08:12:48.518Z,35.77
2018-07-12T08:15:17.877Z,36.80
2018-07-12T08:17:47.731Z,38.83
2018-07-12T08:20:17.101Z,49.03
2018-07-12T08:22:46.459Z,48.83
2018-07-12T08:25:15.939Z,47.53
2018-07-12T08:27:56.574Z,51.03
2018-07-12T08:30:26.076Z,51.70
2018-07-12T08:32:55.523Z,50.30
2018-07-12T08:35:25.050Z,37.17
2018-07-12T08:37:54.418Z,37.83
2018-07-12T08:40:23.906Z,41.20
2018-07-12T08:42:53.401Z,47.20
2018-07-12T08:45:23.059Z,39.17
2018-07-12T08:47:52.599Z,36.20
2018-07-12T08:50:21.990Z,32.77
2018-07-12T08:52:51.549Z,38.43
2018-07-12T08:55:21.098Z,34.70
2018-07-12T08:57:50.461Z,30.63
2018-07-12T09:00:19.803Z,32.07
2018-07-12T09:02:49.949Z,28.13
2018-07-12T09:05:19.793Z,36.47
2018-07-12T09:07:49.146Z,41.73
2018-07-12T09:10:18.512Z,41.10
2018-07-12T09:12:47.859Z,38.33
2018-07-12T09:15:17.172Z,43.60
2018-07-12T09:17:46.427Z,35.27
2018-07-12T09:20:15.900Z,30.20
2018-07-12T09:22:45.253Z,28.97
2018-07-12T09:25:14.920Z,28.07
2018-07-12T09:27:44.214Z,27.00
2018-07-12T09:30:13.606Z,28.40
2018-07-12T09:32:43.033Z,23.13
2018-07-12T09:35:12.539Z,24.37
2018-07-12T09:37:41.847Z,26.93
2018-07-12T09:40:11.266Z,26.63
2018-07-12T09:42:40.956Z,26.57
2018-07-12T09:45:10.330Z,29.40
2018-07-12T09:47:39.766Z,30.07
2018-07-12T09:50:09.333Z,33.63
2018-07-12T09:52:38.628Z,28.20
2018-07-12T09:55:07.692Z,25.50
2018-07-12T09:57:48.312Z,28.70
2018-07-12T10:00:17.724Z,29.00
2018-07-12T10:02:52.439Z,33.43
2018-07-12T10:05:27.199Z,25.10
2018-07-12T10:08:02.043Z,28.40
2018-07-12T10:10:31.722Z,25.03
2018-07-12T10:13:06.171Z,24.30
2018-07-12T10:15:40.471Z,23.90
2018-07-12T10:18:15.354Z,25.40
2018-07-12T10:20:44.800Z,29.33
2018-07-12T10:23:14.465Z,25.40
2018-07-12T10:25:43.631Z,27.67
2018-07-12T10:28:13.365Z,27.70
2018-07-12T10:30:42.947Z,29.27
2018-07-12T10:33:12.206Z,28.73
2018-07-12T10:35:41.631Z,23.70
2018-07-12T10:38:10.970Z,22.60
2018-07-12T10:40:40.823Z,21.30
2018-07-12T10:43:10.083Z,20.47
2018-07-12T10:45:39.889Z,15.63
2018-07-12T10:48:09.253Z,17.77
2018-07-12T10:50:38.609Z,21.63
2018-07-12T10:53:07.989Z,26.27
2018-07-12T10:55:37.326Z,27.87
2018-07-12T10:58:06.663Z,23.33
2018-07-12T11:00:35.963Z,19.00
2018-07-12T11:03:05.384Z,21.60
2018-07-12T11:05:34.744Z,18.83
2018-07-12T11:08:04.103Z,23.40
2018-07-12T11:10:33.247Z,17.47
2018-07-12T11:13:12.811Z,18.23
2018-07-12T11:15:42.941Z,18.93
2018-07-12T11:18:12.388Z,16.70
2018-07-12T11:20:42.219Z,19.83
2018-07-12T11:23:11.728Z,21.57
2018-07-12T11:25:41.121Z,21.97
2018-07-12T11:28:10.455Z,22.83
2018-07-12T11:30:39.879Z,20.77
2018-07-12T11:33:38.149Z,21.23
2018-07-12T11:36:07.979Z,16.80
2018-07-12T11:38:38.222Z,16.87
2018-07-12T11:41:08.474Z,21.23
2018-07-12T11:43:38.114Z,26.53
2018-07-12T11:46:08.663Z,28.80
2018-07-12T11:48:40.277Z,34.53
2018-07-12T11:51:09.654Z,40.77
2018-07-12T11:53:38.980Z,43.10
2018-07-12T11:56:08.309Z,38.27
2018-07-12T11:58:37.626Z,43.03
2018-07-12T12:01:06.900Z,37.90
2018-07-12T12:03:36.310Z,40.10
2018-07-12T12:06:05.772Z,37.80
2018-07-12T12:08:35.263Z,40.90
2018-07-12T12:11:04.536Z,40.67
2018-07-12T12:13:33.950Z,37.00
2018-07-12T12:16:03.370Z,34.53
2018-07-12T12:18:32.867Z,34.03
2018-07-12T12:21:02.171Z,42.43
2018-07-12T12:23:31.552Z,40.53
2018-07-12T12:26:01.032Z,35.40
2018-07-12T12:28:30.435Z,34.70
2018-07-12T12:30:59.819Z,36.73
2018-07-12T12:33:29.494Z,35.37
2018-07-12T12:35:58.812Z,30.77
2018-07-12T12:38:28.155Z,23.60
2018-07-12T12:40:57.534Z,24.57
2018-07-12T12:43:26.846Z,33.60
2018-07-12T12:45:56.275Z,29.37
2018-07-12T12:48:25.628Z,24.83
2018-07-12T12:50:55.187Z,27.90
2018-07-12T12:53:24.442Z,25.40
2018-07-12T12:55:53.780Z,24.60
2018-07-12T12:58:23.405Z,22.87
2018-07-12T13:00:52.752Z,19.07
2018-07-12T13:03:22.272Z,16.17
2018-07-12T13:05:51.590Z,18.60
2018-07-12T13:08:20.993Z,17.30
2018-07-12T13:10:50.625Z,18.57
2018-07-12T13:13:20.014Z,29.57
2018-07-12T13:15:49.454Z,21.40
2018-07-12T13:18:19.089Z,21.10
2018-07-12T13:20:48.563Z,22.87
2018-07-12T13:23:17.955Z,20.13
2018-07-12T13:25:48.800Z,18.23
2018-07-12T13:28:18.119Z,17.90
2018-07-12T13:30:47.622Z,19.80
2018-07-12T13:33:17.131Z,16.40
2018-07-12T13:35:46.566Z,17.53
2018-07-12T13:38:16.159Z,17.80
2018-07-12T13:40:45.482Z,16.00
2018-07-12T13:43:14.767Z,14.83
2018-07-12T13:45:44.084Z,19.50
2018-07-12T13:48:13.428Z,16.97
2018-07-12T13:50:42.891Z,16.07
2018-07-12T13:53:12.188Z,19.63
2018-07-12T13:55:41.500Z,16.00
2018-07-12T13:58:10.828Z,17.83
2018-07-12T14:00:40.088Z,14.83
2018-07-12T14:03:09.564Z,19.03
2018-07-12T14:05:38.901Z,15.93
2018-07-12T14:08:08.263Z,16.57
2018-07-12T14:10:37.639Z,15.87
2018-07-12T14:13:06.993Z,16.37
2018-07-12T14:15:36.483Z,16.73
2018-07-12T14:18:05.447Z,17.13
2018-07-12T14:20:34.676Z,15.90
2018-07-12T14:23:03.947Z,13.70
2018-07-12T14:25:33.279Z,11.83
2018-07-12T14:28:02.943Z,12.90
2018-07-12T14:30:32.295Z,13.07
2018-07-12T14:33:01.580Z,12.00
2018-07-12T14:35:30.878Z,13.43
2018-07-12T14:38:00.204Z,16.93
2018-07-12T14:40:29.550Z,13.60
2018-07-12T14:42:58.843Z,16.00
2018-07-12T14:45:28.290Z,19.13
2018-07-12T14:47:57.657Z,19.97
2018-07-12T14:50:27.094Z,22.00
2018-07-12T14:52:56.385Z,31.50
2018-07-12T14:55:26.400Z,22.50
2018-07-12T14:57:55.888Z,22.00
2018-07-12T15:00:25.209Z,22.80
2018-07-12T15:02:54.534Z,20.47
2018-07-12T15:05:23.727Z,19.47
2018-07-12T15:07:53.362Z,22.13
2018-07-12T15:10:22.688Z,19.33
2018-07-12T15:12:52.016Z,20.17
2018-07-12T15:15:21.447Z,14.83
2018-07-12T15:17:50.743Z,19.60
2018-07-12T15:20:20.004Z,18.30
2018-07-12T15:22:49.443Z,26.43
2018-07-12T15:25:18.748Z,16.83
2018-07-12T15:27:48.245Z,22.63
2018-07-12T15:30:17.497Z,20.40
2018-07-12T15:32:46.818Z,19.50
2018-07-12T15:35:16.151Z,22.73
2018-07-12T15:37:45.579Z,20.37
2018-07-12T15:40:14.904Z,19.63
2018-07-12T15:42:44.404Z,22.17
2018-07-12T15:45:13.947Z,27.90
2018-07-12T15:47:43.297Z,18.60
2018-07-12T15:50:12.726Z,15.70
2018-07-12T15:52:42.171Z,16.83
2018-07-12T15:55:11.524Z,17.87
2018-07-12T15:57:40.896Z,16.10
2018-07-12T16:00:10.326Z,19.73
2018-07-12T16:02:40.590Z,12.80
2018-07-12T16:05:09.944Z,19.53
2018-07-12T16:07:39.377Z,16.30
2018-07-12T16:10:08.987Z,15.13
2018-07-12T16:12:38.286Z,16.80
2018-07-12T16:15:07.600Z,18.20
2018-07-12T16:17:37.027Z,14.97
2018-07-12T16:20:06.744Z,16.40
2018-07-12T16:22:36.177Z,15.40
2018-07-12T16:25:05.503Z,16.00
2018-07-12T16:27:34.907Z,14.83
2018-07-12T16:30:05.442Z,15.00
2018-07-12T16:32:35.029Z,14.20
2018-07-12T16:35:04.549Z,36.50
2018-07-12T16:37:33.959Z,17.70
2018-07-12T16:40:03.824Z,18.10
2018-07-12T16:42:33.349Z,15.63
2018-07-12T16:45:02.895Z,13.70
2018-07-12T16:47:32.552Z,15.63
2018-07-12T16:50:03.107Z,19.93
2018-07-12T16:52:32.767Z,15.43
2018-07-12T16:55:02.135Z,15.27
2018-07-12T16:57:31.562Z,13.40
2018-07-12T17:00:01.124Z,13.93
2018-07-12T17:02:31.589Z,9.63
2018-07-12T17:05:00.956Z,11.80
2018-07-12T17:07:30.407Z,11.30
2018-07-12T17:10:00.251Z,11.80
2018-07-12T17:12:29.551Z,15.07
2018-07-12T17:14:58.893Z,19.70
2018-07-12T17:17:28.252Z,21.93
2018-07-12T17:19:57.672Z,19.93
2018-07-12T17:22:27.036Z,19.67
2018-07-12T17:24:56.461Z,26.50
2018-07-12T17:27:25.788Z,23.57
2018-07-12T17:29:55.264Z,26.47
2018-07-12T17:32:24.670Z,23.53
2018-07-12T17:34:54.211Z,25.53
2018-07-12T17:37:23.883Z,25.80
2018-07-12T17:39:53.515Z,30.27
2018-07-12T17:42:22.940Z,29.00
2018-07-12T17:44:52.652Z,26.53
2018-07-12T17:47:22.734Z,28.60
2018-07-12T17:49:52.562Z,29.67
2018-07-12T17:52:22.085Z,30.40
2018-07-12T17:54:51.701Z,27.97
2018-07-12T17:57:21.260Z,28.33
2018-07-12T17:59:50.654Z,26.03
2018-07-12T18:02:20.184Z,23.87
2018-07-12T18:04:49.801Z,24.63
2018-07-12T18:07:19.256Z,28.43
2018-07-12T18:09:48.820Z,26.30
2018-07-12T18:12:18.766Z,25.80
2018-07-12T18:14:48.298Z,25.13
2018-07-12T18:17:17.913Z,23.37
2018-07-12T18:19:48.276Z,26.77
2018-07-12T18:22:18.871Z,24.13
2018-07-12T18:24:48.203Z,23.80
2018-07-12T18:27:17.671Z,21.20
2018-07-12T18:29:47.067Z,19.57
2018-07-12T18:32:16.715Z,30.00
2018-07-12T18:34:46.230Z,21.70
2018-07-12T18:37:15.707Z,25.13
2018-07-12T18:39:45.272Z,24.60
2018-07-12T18:42:14.672Z,26.50
2018-07-12T18:44:44.255Z,21.60
2018-07-12T18:47:13.780Z,22.20
2018-07-12T18:49:43.902Z,21.20
2018-07-12T18:52:13.439Z,21.67
2018-07-12T18:54:42.932Z,24.30
2018-07-12T18:57:12.403Z,21.97
2018-07-12T18:59:42.032Z,24.00
2018-07-12T19:02:11.669Z,22.77
2018-07-12T19:04:41.403Z,19.17
2018-07-12T19:07:10.836Z,24.27
2018-07-12T19:09:40.255Z,24.60
2018-07-12T19:12:09.793Z,22.40
2018-07-12T19:14:39.183Z,22.63
2018-07-12T19:17:08.708Z,25.67
2018-07-12T19:19:38.192Z,26.13
2018-07-12T19:22:07.619Z,27.17
2018-07-12T19:24:37.054Z,29.53
2018-07-12T19:27:06.706Z,30.03
2018-07-12T19:29:36.243Z,27.97
2018-07-12T19:32:05.935Z,26.80
2018-07-12T19:34:35.401Z,26.20
2018-07-12T19:37:04.955Z,29.63
2018-07-12T19:39:34.340Z,27.17
2018-07-12T19:42:03.904Z,29.37
2018-07-12T19:44:33.249Z,24.90
2018-07-12T19:47:02.908Z,28.43
2018-07-12T19:49:32.451Z,28.33
2018-07-12T19:52:01.780Z,36.70
2018-07-12T19:54:31.259Z,28.13
2018-07-12T19:57:00.927Z,29.07
2018-07-12T19:59:30.386Z,29.60
2018-07-12T20:01:59.791Z,29.77
2018-07-12T20:04:29.171Z,27.50
2018-07-12T20:06:58.663Z,28.50
2018-07-12T20:09:27.991Z,27.37
2018-07-12T20:11:57.453Z,31.20
2018-07-12T20:14:27.003Z,29.03
2018-07-12T20:16:56.296Z,29.07
2018-07-12T20:19:25.834Z,26.77
2018-07-12T20:21:55.298Z,29.60
2018-07-12T20:24:24.694Z,27.47
2018-07-12T20:26:54.116Z,30.77
2018-07-12T20:29:23.602Z,26.60
2018-07-12T20:31:52.868Z,27.83
2018-07-12T20:34:22.206Z,27.93
2018-07-12T20:36:51.224Z,31.17
2018-07-12T20:39:20.562Z,26.53
2018-07-12T20:41:49.936Z,31.93
2018-07-12T20:44:19.341Z,33.20
2018-07-12T20:46:48.955Z,34.13
2018-07-12T20:49:18.307Z,33.00
2018-07-12T20:51:47.793Z,28.93
2018-07-12T20:54:17.514Z,32.27
2018-07-12T20:56:46.977Z,31.37
2018-07-12T20:59:16.401Z,28.50
2018-07-12T21:01:45.853Z,29.13
2018-07-12T21:04:15.270Z,30.67
2018-07-12T21:06:44.685Z,33.27
2018-07-12T21:09:14.177Z,35.20
2018-07-12T21:11:43.740Z,33.13
2018-07-12T21:14:13.197Z,36.40
2018-07-12T21:16:42.651Z,35.63
2018-07-12T21:19:12.112Z,34.90
2018-07-12T21:21:41.821Z,28.80
2018-07-12T21:24:11.234Z,32.43
2018-07-12T21:26:40.699Z,36.10
2018-07-12T21:29:10.083Z,34.43
2018-07-12T21:31:39.601Z,34.77
2018-07-12T21:34:08.972Z,33.63
2018-07-12T21:36:38.523Z,34.47
2018-07-12T21:39:09.916Z,35.50
2018-07-12T21:41:39.532Z,32.67
2018-07-12T21:44:08.915Z,35.43
2018-07-12T21:46:38.220Z,32.00
2018-07-12T21:49:07.916Z,39.20
2018-07-12T21:51:37.243Z,34.13
2018-07-12T21:54:06.708Z,35.00
2018-07-12T21:56:36.053Z,35.17
2018-07-12T21:59:05.586Z,39.43
2018-07-12T22:01:35.048Z,32.13
2018-07-12T22:04:04.401Z,35.47
2018-07-12T22:06:51.226Z,34.87
2018-07-12T22:09:20.593Z,33.50
2018-07-12T22:11:50.018Z,37.87
2018-07-12T22:14:19.572Z,33.07
2018-07-12T22:16:49.035Z,33.57
2018-07-12T22:19:18.378Z,32.17
2018-07-12T22:21:47.747Z,34.23
2018-07-12T22:24:17.109Z,33.30
2018-07-12T22:26:46.527Z,31.03
2018-07-12T22:29:15.910Z,36.30
2018-07-12T22:31:45.250Z,37.80
2018-07-12T22:34:14.645Z,33.57
2018-07-12T22:36:44.258Z,36.73
2018-07-12T22:39:13.619Z,34.40
2018-07-12T22:41:43.002Z,35.33
2018-07-12T22:44:12.407Z,35.50
2018-07-12T22:46:41.764Z,34.60
2018-07-12T22:49:11.271Z,33.40
2018-07-12T22:51:40.731Z,30.73
2018-07-12T22:54:10.095Z,34.17
2018-07-12T22:56:39.445Z,32.47
2018-07-12T22:59:08.722Z,33.83
2018-07-12T23:01:38.199Z,32.80
2018-07-12T23:04:07.652Z,38.87
2018-07-12T23:06:37.027Z,33.83
2018-07-12T23:09:06.419Z,38.70
2018-07-12T23:11:35.831Z,33.00
2018-07-12T23:14:05.347Z,32.93
2018-07-12T23:16:34.757Z,37.33
2018-07-12T23:19:04.178Z,36.87
2018-07-12T23:21:33.724Z,33.47
2018-07-12T23:24:03.507Z,37.17
2018-07-12T23:26:32.907Z,34.87
2018-07-12T23:29:02.575Z,30.47
2018-07-12T23:31:32.432Z,30.93
2018-07-12T23:34:01.979Z,34.33
2018-07-12T23:36:31.566Z,34.23
2018-07-12T23:39:01.301Z,29.80
2018-07-12T23:41:30.642Z,29.80
2018-07-12T23:44:00.166Z,31.07
2018-07-12T23:46:29.536Z,32.10
2018-07-12T23:48:58.838Z,37.20
2018-07-12T23:51:28.276Z,31.20
2018-07-12T23:53:57.579Z,31.97
2018-07-12T23:56:27.096Z,32.60
2018-07-12T23:58:56.406Z,32.67
